Time;durP1;ratioP1;P1;durP2;ratioP2;P2;SDS_P1;SDS_P2;PMS_P1;PMS_P2;Temp;Humidity;BMP_temperature;BMP_pressure;BME280_temperature;BME280_humidity;BME280_pressure;Samples;Min_cycle;Max_cycle;Signal;HPM_P1;HPM_P2
2022/10/31 00:00:14;;;;;;;;;;;;;;;20.19;73.19;97357.98;600495;236;66849;-72
2022/10/31 00:02:43;;;;;;;;;;;;;;;20.18;72.58;97354.48;600409;236;65608;-72
2022/10/31 00:05:10;;;;;;;;;;;;;;;20.18;72.36;97354.48;600432;236;67175;-72
2022/10/31 00:07:38;;;;;;;;;;;;;;;20.18;72.56;97356.34;600466;236;66947;-72
2022/10/31 00:10:06;;;;;;;;;;;;;;;20.18;73.31;97357.15;600419;236;66289;-72
2022/10/31 00:12:33;;;;;;;;;;;;;;;20.17;72.78;97352.88;600460;236;67069;-72
2022/10/31 00:15:01;;;;;;;;;;;;;;;20.17;72.95;97352.88;600446;236;66870;-72
2022/10/31 00:17:28;;;;;;;;;;;;;;;20.17;73.07;97355.55;600425;236;64894;-72
2022/10/31 00:19:56;;;;;;;;;;;;;;;20.17;73.10;97352.88;600457;236;67259;-72
2022/10/31 00:22:24;;;;;;;;;;;;;;;20.17;73.05;97354.75;600414;236;66889;-72
2022/10/31 00:24:51;;;;;;;;;;;;;;;20.17;73.22;97350.22;600479;236;62751;-73
2022/10/31 00:27:19;;;;;;;;;;;;;;;20.17;73.23;97350.22;600417;236;64954;-72
2022/10/31 00:29:46;;;;;;;;;;;;;;;20.17;73.27;97354.75;600461;236;65685;-72
2022/10/31 00:32:14;;;;;;;;;;;;;;;20.17;73.06;97360.09;600429;236;62796;-72
2022/10/31 00:34:41;;;;;;;;;;;;;;;20.16;72.74;97359.30;600439;236;64819;-72
2022/10/31 00:37:09;;;;;;;;;;;;;;;20.17;73.45;97368.89;600430;236;66879;-72
2022/10/31 00:39:37;;;;;;;;;;;;;;;20.16;73.01;97359.30;600481;236;64915;-72
2022/10/31 00:42:05;;;;;;;;;;;;;;;20.16;73.07;97359.30;600434;236;68080;-73
2022/10/31 00:44:32;;;;;;;;;;;;;;;20.15;72.81;97352.33;600471;236;66581;-73
2022/10/31 00:47:00;;;;;;;;;;;;;;;20.15;72.92;97352.33;600417;236;64841;-73
2022/10/31 00:49:27;;;;;;;;;;;;;;;20.15;73.13;97357.66;600298;236;67021;-72
2022/10/31 00:51:56;;;;;;;;;;;;;;;20.16;73.15;97353.12;600077;236;67624;-72
2022/10/31 00:54:23;;;;;;;;;;;;;;;20.16;73.20;97361.13;600050;236;65089;-72
2022/10/31 00:56:51;;;;;;;;;;;;;;;20.15;72.84;97363.00;600041;236;64854;-72
2022/10/31 00:59:18;;;;;;;;;;;;;;;20.14;73.38;97361.41;600055;236;64840;-73
2022/10/31 01:01:46;;;;;;;;;;;;;;;20.15;73.24;97363.00;600052;236;62749;-72
2022/10/31 01:04:13;;;;;;;;;;;;;;;20.14;73.01;97358.73;600071;236;67128;-73
2022/10/31 01:06:41;;;;;;;;;;;;;;;20.14;73.30;97353.40;600038;236;66863;-72
2022/10/31 01:09:08;;;;;;;;;;;;;;;20.15;73.02;97362.20;600058;236;63769;-72
2022/10/31 01:11:36;;;;;;;;;;;;;;;20.15;72.93;97362.20;600028;236;67291;-72
2022/10/31 01:14:05;;;;;;;;;;;;;;;20.14;72.86;97366.74;600056;236;45127;-72
2022/10/31 01:16:33;;;;;;;;;;;;;;;20.14;72.98;97365.95;600052;236;63821;-72
2022/10/31 01:19:00;;;;;;;;;;;;;;;20.14;72.52;97356.06;600069;236;65057;-73
2022/10/31 01:21:29;;;;;;;;;;;;;;;20.13;72.93;97366.98;600084;236;64773;-72
2022/10/31 01:23:58;;;;;;;;;;;;;;;20.13;72.75;97377.66;600092;236;44012;-72
2022/10/31 01:26:27;;;;;;;;;;;;;;;20.13;72.70;97381.16;600098;236;67011;-72
2022/10/31 01:28:56;;;;;;;;;;;;;;;20.13;72.63;97389.16;600120;236;66959;-72
2022/10/31 01:31:25;;;;;;;;;;;;;;;20.13;72.25;97391.00;600111;236;63721;-72
2022/10/31 01:33:53;;;;;;;;;;;;;;;20.13;73.22;97391.00;600061;236;64808;-73
2022/10/31 01:36:22;;;;;;;;;;;;;;;20.12;72.96;97400.88;600074;236;65724;-73
2022/10/31 01:38:52;;;;;;;;;;;;;;;20.11;73.06;97404.61;600064;236;62397;-73
2022/10/31 01:41:21;;;;;;;;;;;;;;;20.11;72.86;97409.95;600081;236;64923;-73
2022/10/31 01:43:53;;;;;;;;;;;;;;;20.12;73.30;97411.55;600110;236;67138;-73
2022/10/31 01:46:22;;;;;;;;;;;;;;;20.11;72.97;97404.61;600086;236;64875;-72
2022/10/31 01:48:50;;;;;;;;;;;;;;;20.11;73.06;97401.14;599784;236;67015;-73
2022/10/31 01:51:20;;;;;;;;;;;;;;;20.11;73.35;97409.95;600055;234;65041;-73
2022/10/31 01:53:47;;;;;;;;;;;;;;;20.10;72.38;97413.66;600073;236;62906;-72
2022/10/31 01:56:16;;;;;;;;;;;;;;;20.11;73.10;97407.28;600088;236;67041;-73
2022/10/31 01:58:45;;;;;;;;;;;;;;;20.11;73.06;97414.48;600086;236;66516;-73
2022/10/31 02:01:16;;;;;;;;;;;;;;;20.10;73.05;97397.65;600051;236;44037;-72
2022/10/31 02:03:45;;;;;;;;;;;;;;;20.10;73.41;97410.98;600076;236;67576;-72
2022/10/31 02:06:23;;;;;;;;;;;;;;;20.10;72.92;97408.32;600039;236;64681;-73
2022/10/31 02:08:52;;;;;;;;;;;;;;;20.09;73.04;97417.39;599730;236;62919;-73
2022/10/31 02:11:21;;;;;;;;;;;;;;;20.10;73.16;97412.86;600161;236;50951;-72
2022/10/31 02:13:49;;;;;;;;;;;;;;;20.09;73.29;97412.06;600038;236;66795;-72
2022/10/31 02:16:16;;;;;;;;;;;;;;;20.08;73.32;97409.64;600082;236;62732;-73
2022/10/31 02:18:44;;;;;;;;;;;;;;;20.09;73.20;97417.39;600066;236;67645;-72
2022/10/31 02:21:26;;;;;;;;;;;;;;;20.08;73.29;97410.47;600038;236;66981;-72
2022/10/31 02:24:01;;;;;;;;;;;;;;;20.08;72.96;97418.47;600059;236;63020;-72
2022/10/31 02:26:32;;;;;;;;;;;;;;;20.08;73.01;97418.47;595903;236;47312;-72
2022/10/31 02:29:18;;;;;;;;;;;;;;;20.08;72.86;97423.80;599208;236;67421;-72
2022/10/31 02:32:03;;;;;;;;;;;;;;;20.08;73.18;97421.14;600048;236;66158;-73
2022/10/31 02:34:32;;;;;;;;;;;;;;;20.08;73.09;97421.14;599889;236;67746;-72
2022/10/31 02:37:01;;;;;;;;;;;;;;;20.07;72.84;97419.51;599928;236;65737;-72
2022/10/31 02:39:30;;;;;;;;;;;;;;;20.08;73.01;97414.97;600031;236;64869;-72
2022/10/31 02:42:16;;;;;;;;;;;;;;;20.07;73.07;97421.38;600063;236;67076;-72
2022/10/31 02:44:47;;;;;;;;;;;;;;;20.06;73.32;97417.91;600070;236;66871;-73
2022/10/31 02:47:17;;;;;;;;;;;;;;;20.07;73.10;97413.38;599909;236;62778;-74
2022/10/31 02:49:46;;;;;;;;;;;;;;;20.06;72.54;97428.58;600078;236;66866;-73
2022/10/31 02:52:21;;;;;;;;;;;;;;;20.07;73.08;97429.38;600084;236;66684;-73
2022/10/31 02:54:49;;;;;;;;;;;;;;;20.05;72.83;97424.32;600082;236;62719;-72
2022/10/31 02:57:18;;;;;;;;;;;;;;;20.05;72.68;97424.32;600119;236;66802;-72
2022/10/31 02:59:47;;;;;;;;;;;;;;;20.06;72.99;97431.25;600107;236;66884;-72
2022/10/31 03:02:22;;;;;;;;;;;;;;;20.06;72.75;97433.13;600076;236;62695;-72
2022/10/31 03:04:51;;;;;;;;;;;;;;;20.06;73.09;97425.91;599750;236;64434;-73
2022/10/31 03:07:27;;;;;;;;;;;;;;;20.06;72.44;97438.45;597495;236;67063;-73
2022/10/31 03:09:57;;;;;;;;;;;;;;;20.05;73.06;97434.98;600127;236;64966;-73
2022/10/31 03:12:29;;;;;;;;;;;;;;;20.06;72.77;97428.58;600055;236;64591;-73
2022/10/31 03:14:58;;;;;;;;;;;;;;;20.05;73.13;97431.49;600051;236;67062;-73
2022/10/31 03:17:31;;;;;;;;;;;;;;;20.04;73.23;97425.36;598917;236;65659;-73
2022/10/31 03:20:00;;;;;;;;;;;;;;;20.05;73.03;97434.98;599752;236;67220;-73
2022/10/31 03:22:29;;;;;;;;;;;;;;;20.04;73.19;97436.03;600027;236;67125;-73
2022/10/31 03:25:00;;;;;;;;;;;;;;;20.03;72.76;97431.77;600114;236;65704;-73
2022/10/31 03:27:29;;;;;;;;;;;;;;;20.04;73.13;97440.56;600079;236;67080;-73
2022/10/31 03:30:00;;;;;;;;;;;;;;;20.04;72.99;97441.36;600105;236;51052;-73
2022/10/31 03:32:30;;;;;;;;;;;;;;;20.04;72.64;97443.23;600077;236;64879;-73
2022/10/31 03:34:59;;;;;;;;;;;;;;;20.03;72.58;97447.77;600052;236;65708;-73
2022/10/31 03:37:28;;;;;;;;;;;;;;;20.04;72.83;97446.70;600053;236;64931;-73
2022/10/31 03:39:57;;;;;;;;;;;;;;;20.03;72.74;97450.44;600125;236;66050;-73
2022/10/31 03:42:25;;;;;;;;;;;;;;;20.03;72.81;97453.11;600007;236;67183;-73
2022/10/31 03:45:00;;;;;;;;;;;;;;;20.03;72.91;97453.11;600048;236;66638;-73
2022/10/31 03:47:29;;;;;;;;;;;;;;;20.03;73.20;97450.44;599830;236;63869;-72
2022/10/31 03:49:57;;;;;;;;;;;;;;;20.02;72.72;97448.81;599993;236;67513;-72
2022/10/31 03:52:32;;;;;;;;;;;;;;;20.02;72.71;97454.14;600109;236;66841;-72
2022/10/31 03:55:10;;;;;;;;;;;;;;;20.03;73.00;97450.44;600031;236;65045;-72
2022/10/31 03:57:42;;;;;;;;;;;;;;;20.02;72.83;97456.81;600039;236;67697;-72
2022/10/31 04:00:11;;;;;;;;;;;;;;;20.03;73.24;97461.11;599685;236;66881;-72
2022/10/31 04:02:51;;;;;;;;;;;;;;;20.03;73.19;97461.11;600162;236;37498;-72
2022/10/31 04:05:21;;;;;;;;;;;;;;;20.02;73.11;97458.68;600016;236;67548;-71
2022/10/31 04:07:50;;;;;;;;;;;;;;;20.02;73.35;97456.81;600080;236;64316;-71
2022/10/31 04:10:19;;;;;;;;;;;;;;;20.01;73.35;97449.88;600051;236;63909;-72
2022/10/31 04:12:48;;;;;;;;;;;;;;;20.02;73.19;97453.34;600024;236;67282;-72
2022/10/31 04:15:18;;;;;;;;;;;;;;;20.01;73.06;97457.88;599977;236;45701;-72
2022/10/31 04:17:47;;;;;;;;;;;;;;;20.00;73.00;97458.95;600044;236;63717;-72
2022/10/31 04:20:19;;;;;;;;;;;;;;;20.00;73.01;97461.63;600055;236;67600;-72
2022/10/31 04:22:46;;;;;;;;;;;;;;;20.01;73.03;97459.75;594302;236;68524;-73
2022/10/31 04:25:14;;;;;;;;;;;;;;;20.02;73.42;97459.48;600060;236;64980;-73
2022/10/31 04:27:41;;;;;;;;;;;;;;;20.01;73.44;97463.22;600050;236;67206;-73
2022/10/31 04:30:10;;;;;;;;;;;;;;;20.01;73.19;97465.89;600078;236;64323;-73
2022/10/31 04:32:39;;;;;;;;;;;;;;;20.00;73.07;97464.29;600060;236;62799;-73
2022/10/31 04:35:07;;;;;;;;;;;;;;;20.01;73.14;97467.75;600077;236;67619;-73
2022/10/31 04:37:35;;;;;;;;;;;;;;;20.01;73.19;97468.55;600042;236;67222;-73
2022/10/31 04:40:03;;;;;;;;;;;;;;;20.00;73.15;97469.63;600028;236;65597;-73
2022/10/31 04:42:46;;;;;;;;;;;;;;;20.00;73.18;97469.63;590946;236;48270;-72
2022/10/31 04:45:14;;;;;;;;;;;;;;;20.01;73.07;97462.42;600066;236;64479;-72
2022/10/31 04:47:42;;;;;;;;;;;;;;;20.00;73.17;97460.79;600025;236;65578;-72
2022/10/31 04:50:10;;;;;;;;;;;;;;;19.99;72.78;97461.86;600017;236;67634;-72
2022/10/31 04:52:41;;;;;;;;;;;;;;;20.00;72.96;97466.12;600059;236;64812;-72
2022/10/31 04:55:10;;;;;;;;;;;;;;;19.99;73.20;97478.66;600026;236;65103;-72
2022/10/31 04:57:55;;;;;;;;;;;;;;;19.99;73.05;97481.33;600146;236;40676;-72
2022/10/31 05:00:24;;;;;;;;;;;;;;;19.98;72.94;97474.40;600044;236;67383;-72
2022/10/31 05:02:52;;;;;;;;;;;;;;;19.99;72.79;97477.87;600012;236;62753;-72
2022/10/31 05:05:21;;;;;;;;;;;;;;;19.97;73.04;97478.14;600092;236;67555;-72
2022/10/31 05:07:49;;;;;;;;;;;;;;;19.99;73.39;97483.20;600024;236;64412;-72
2022/10/31 05:10:19;;;;;;;;;;;;;;;19.99;72.97;97488.54;600045;236;65104;-72
2022/10/31 05:12:47;;;;;;;;;;;;;;;19.98;72.68;97485.07;600011;236;65160;-72
2022/10/31 05:15:33;;;;;;;;;;;;;;;19.98;72.94;97486.94;600131;236;37739;-72
2022/10/31 05:18:12;;;;;;;;;;;;;;;19.98;73.06;97494.94;579030;243;46302;-72
2022/10/31 05:20:41;;;;;;;;;;;;;;;19.97;73.15;97494.14;599253;236;46756;-73
2022/10/31 05:23:20;;;;;;;;;;;;;;;19.97;72.74;97494.14;599579;236;47988;-72
2022/10/31 05:25:47;;;;;;;;;;;;;;;19.97;72.80;97496.81;599988;236;65591;-72
2022/10/31 05:28:17;;;;;;;;;;;;;;;19.96;73.30;97498.65;599823;236;67035;-72
2022/10/31 05:30:49;;;;;;;;;;;;;;;19.96;73.16;97498.65;599914;236;66870;-73
2022/10/31 05:33:16;;;;;;;;;;;;;;;19.95;72.84;97504.25;599666;234;64879;-73
2022/10/31 05:35:55;;;;;;;;;;;;;;;19.95;72.93;97517.59;589544;240;46872;-73
2022/10/31 05:38:36;;;;;;;;;;;;;;;19.96;73.37;97521.86;599770;235;48144;-73
2022/10/31 05:41:07;;;;;;;;;;;;;;;19.94;73.40;97516.80;600056;235;46481;-73
2022/10/31 05:43:34;;;;;;;;;;;;;;;19.95;73.31;97520.26;600365;236;67193;-73
2022/10/31 05:46:05;;;;;;;;;;;;;;;19.95;73.21;97525.59;600399;236;67119;-73
2022/10/31 05:48:52;;;;;;;;;;;;;;;19.95;73.09;97530.92;600481;236;40311;-73
2022/10/31 05:51:37;;;;;;;;;;;;;;;19.95;73.58;97528.27;598244;237;45000;-72
2022/10/31 05:54:05;;;;;;;;;;;;;;;19.94;73.46;97532.80;598213;237;66047;-72
2022/10/31 05:56:32;;;;;;;;;;;;;;;19.94;73.48;97534.63;598143;237;64932;-72
2022/10/31 05:59:00;;;;;;;;;;;;;;;19.94;73.43;97534.63;598215;237;67054;-72
2022/10/31 06:01:28;;;;;;;;;;;;;;;19.95;73.64;97530.92;598206;237;66807;-72
2022/10/31 06:03:57;;;;;;;;;;;;;;;19.93;73.94;97536.50;598154;237;65100;-72
2022/10/31 06:06:25;;;;;;;;;;;;;;;19.93;73.48;97536.50;598209;237;67264;-72
2022/10/31 06:08:52;;;;;;;;;;;;;;;19.94;73.19;97537.30;598182;237;64798;-72
2022/10/31 06:11:21;;;;;;;;;;;;;;;19.93;72.01;97543.70;598116;237;66085;-72
2022/10/31 06:13:56;;;;;;;;;;;;;;;19.94;73.97;97540.80;590539;237;48267;-73
2022/10/31 06:16:25;;;;;;;;;;;;;;;19.94;73.10;97546.13;598077;237;43263;-72
2022/10/31 06:18:54;;;;;;;;;;;;;;;19.96;74.22;97553.87;598166;237;64916;-72
2022/10/31 06:21:22;;;;;;;;;;;;;;;19.96;74.39;97549.34;598269;237;67320;-72
2022/10/31 06:23:51;;;;;;;;;;;;;;;19.98;74.20;97549.09;598196;237;64297;-72
2022/10/31 06:26:36;;;;;;;;;;;;;;;19.98;73.54;97549.09;598233;237;37510;-72
2022/10/31 06:29:04;;;;;;;;;;;;;;;19.99;73.80;97558.70;598026;237;67011;-73
2022/10/31 06:31:33;;;;;;;;;;;;;;;20.00;73.67;97555.00;593788;237;48032;-72
2022/10/31 06:34:01;;;;;;;;;;;;;;;20.01;72.49;97548.59;598151;237;65090;-72
2022/10/31 06:36:29;;;;;;;;;;;;;;;20.03;71.74;97554.48;598183;237;64368;-72
2022/10/31 06:38:56;;;;;;;;;;;;;;;20.05;72.40;97555.05;598198;237;64836;-72
2022/10/31 06:41:24;;;;;;;;;;;;;;;20.07;71.90;97552.91;598181;237;65768;-72
2022/10/31 06:43:53;;;;;;;;;;;;;;;20.08;70.63;97551.05;598146;237;67658;-72
2022/10/31 06:46:25;;;;;;;;;;;;;;;20.10;70.27;97557.74;597682;237;45579;-72
2022/10/31 06:49:00;;;;;;;;;;;;;;;20.11;70.61;97564.71;597937;237;47443;-72
2022/10/31 06:51:39;;;;;;;;;;;;;;;20.13;69.81;97559.94;598046;237;48287;-72
2022/10/31 06:54:06;;;;;;;;;;;;;;;20.15;69.79;97565.00;598151;237;66650;-72
2022/10/31 06:56:34;;;;;;;;;;;;;;;20.17;69.76;97558.36;598147;237;62770;-73
2022/10/31 06:59:01;;;;;;;;;;;;;;;20.18;69.51;97559.16;598200;237;67663;-72
2022/10/31 07:01:31;;;;;;;;;;;;;;;20.21;69.83;97569.33;597319;237;44908;-74
2022/10/31 07:03:59;;;;;;;;;;;;;;;20.22;70.36;97567.48;598262;237;62758;-75
2022/10/31 07:06:27;;;;;;;;;;;;;;;20.23;69.34;97566.42;598187;237;64572;-75
2022/10/31 07:08:54;;;;;;;;;;;;;;;20.24;69.26;97565.34;598183;237;67328;-75
2022/10/31 07:11:23;;;;;;;;;;;;;;;20.24;68.53;97560.02;598198;237;62531;-74
2022/10/31 07:13:51;;;;;;;;;;;;;;;20.25;68.75;97559.77;598221;237;64546;-75
2022/10/31 07:16:18;;;;;;;;;;;;;;;20.27;69.10;97556.84;597689;237;66584;-74
2022/10/31 07:18:46;;;;;;;;;;;;;;;20.28;68.27;97555.80;595801;237;64851;-74
2022/10/31 07:21:14;;;;;;;;;;;;;;;20.28;67.40;97558.47;594468;238;64492;-74
2022/10/31 07:23:41;;;;;;;;;;;;;;;20.29;67.53;97544.84;594355;238;65799;-74
2022/10/31 07:26:27;;;;;;;;;;;;;;;20.31;67.29;97542.73;594494;238;39897;-74
2022/10/31 07:28:55;;;;;;;;;;;;;;;20.33;66.83;97537.16;594438;238;64653;-75
2022/10/31 07:31:24;;;;;;;;;;;;;;;20.36;66.16;97536.65;594457;238;67426;-75
2022/10/31 07:33:52;;;;;;;;;;;;;;;20.37;66.46;97541.72;594445;238;64856;-75
2022/10/31 07:36:28;;;;;;;;;;;;;;;20.38;66.20;97542.55;594549;238;49745;-77
2022/10/31 07:38:58;;;;;;;;;;;;;;;20.39;66.65;97538.81;594334;238;43304;-70
2022/10/31 07:41:26;;;;;;;;;;;;;;;20.40;66.08;97537.73;594488;238;65118;-75
2022/10/31 07:43:53;;;;;;;;;;;;;;;20.40;66.09;97535.87;594522;238;67089;-73
2022/10/31 07:46:28;;;;;;;;;;;;;;;20.42;66.67;97540.17;593618;238;48677;-74
2022/10/31 07:49:14;;;;;;;;;;;;;;;20.42;66.18;97532.95;595314;234;37671;-72
2022/10/31 07:52:00;;;;;;;;;;;;;;;20.43;66.36;97537.22;604615;234;43075;-74
2022/10/31 07:54:29;;;;;;;;;;;;;;;20.43;65.96;97526.55;599989;234;46812;-72
2022/10/31 07:56:58;;;;;;;;;;;;;;;20.43;66.59;97525.75;604501;234;62727;-73
2022/10/31 07:59:27;;;;;;;;;;;;;;;20.44;66.54;97533.52;604434;234;67108;-73
2022/10/31 08:01:55;;;;;;;;;;;;;;;20.44;66.73;97530.05;604565;234;66878;-72
2022/10/31 08:04:33;;;;;;;;;;;;;;;20.44;66.03;97536.19;604558;234;46527;-75
2022/10/31 08:07:18;;;;;;;;;;;;;;;20.44;65.81;97533.52;604419;234;43063;-73
2022/10/31 08:09:48;;;;;;;;;;;;;;;20.45;65.26;97532.45;604421;234;44241;-71
2022/10/31 08:12:20;;;;;;;;;;;;;;;20.46;64.67;97538.58;604512;234;46988;-74
2022/10/31 08:14:47;;;;;;;;;;;;;;;20.46;64.92;97542.08;604382;234;67069;-74
2022/10/31 08:17:15;;;;;;;;;;;;;;;20.47;65.60;97527.66;604471;234;66724;-75
2022/10/31 08:19:56;;;;;;;;;;;;;;;20.47;65.66;97535.67;604439;234;65647;-74
2022/10/31 08:22:25;;;;;;;;;;;;;;;20.48;64.67;97523.13;604354;234;44379;-74
2022/10/31 08:24:53;;;;;;;;;;;;;;;20.49;65.31;97528.22;604503;234;65029;-67
2022/10/31 08:27:21;;;;;;;;;;;;;;;20.49;65.17;97530.89;604431;234;65650;-74
2022/10/31 08:29:48;;;;;;;;;;;;;;;20.49;65.54;97527.39;604550;234;67073;-73
2022/10/31 08:32:16;;;;;;;;;;;;;;;20.48;65.46;97526.59;604517;234;64733;-74
2022/10/31 08:34:58;;;;;;;;;;;;;;;20.50;65.72;97524.48;604525;234;46088;-74
2022/10/31 08:37:30;;;;;;;;;;;;;;;20.50;65.17;97521.01;603720;234;45071;-72
2022/10/31 08:39:58;;;;;;;;;;;;;;;20.50;64.99;97519.14;604442;234;64743;-73
2022/10/31 08:42:27;;;;;;;;;;;;;;;20.49;64.65;97520.21;604518;234;64832;-74
2022/10/31 08:44:54;;;;;;;;;;;;;;;20.50;65.39;97519.14;604485;234;64621;-74
2022/10/31 08:47:22;;;;;;;;;;;;;;;20.52;63.72;97509.02;604526;234;64873;-74
2022/10/31 08:49:49;;;;;;;;;;;;;;;20.55;63.95;97519.22;604385;234;65070;-75
2022/10/31 08:52:17;;;;;;;;;;;;;;;20.57;64.25;97522.44;604546;234;67317;-75
2022/10/31 08:54:46;;;;;;;;;;;;;;;20.58;64.47;97521.37;604494;234;67259;-74
2022/10/31 08:57:34;;;;;;;;;;;;;;;20.62;64.44;97527.00;603602;234;47128;-74
2022/10/31 09:00:01;;;;;;;;;;;;;;;20.63;64.80;97519.81;604493;234;67306;-74
2022/10/31 09:02:34;;;;;;;;;;;;;;;20.63;64.97;97523.28;603712;234;49034;-74
2022/10/31 09:05:02;;;;;;;;;;;;;;;20.64;64.88;97524.87;604487;234;63641;-75
2022/10/31 09:07:29;;;;;;;;;;;;;;;20.65;64.85;97523.81;604486;234;67118;-74
2022/10/31 09:09:58;;;;;;;;;;;;;;;20.66;65.52;97521.97;604468;234;67270;-71
2022/10/31 09:12:26;;;;;;;;;;;;;;;20.67;64.89;97528.91;604553;234;62457;-72
2022/10/31 09:15:10;;;;;;;;;;;;;;;20.67;65.05;97521.70;603658;234;48484;-71
2022/10/31 09:17:49;;;;;;;;;;;;;;;20.68;65.46;97514.48;604312;234;44188;-71
2022/10/31 09:20:24;;;;;;;;;;;;;;;20.69;65.36;97510.77;600567;234;46308;-71
2022/10/31 09:22:59;;;;;;;;;;;;;;;20.68;65.05;97512.64;603364;234;67018;-72
2022/10/31 09:25:27;;;;;;;;;;;;;;;20.69;65.13;97510.77;601842;234;67402;-73
2022/10/31 09:27:58;;;;;;;;;;;;;;;20.70;65.35;97507.02;600528;236;42333;-75
2022/10/31 09:30:27;;;;;;;;;;;;;;;20.71;65.57;97511.33;601108;236;67233;-73
2022/10/31 09:32:56;;;;;;;;;;;;;;;20.71;65.33;97514.80;601316;236;66769;-72
2022/10/31 09:35:24;;;;;;;;;;;;;;;20.72;65.47;97512.92;601354;236;62923;-71
2022/10/31 09:37:55;;;;;;;;;;;;;;;20.73;65.24;97506.51;601344;236;67085;-73
2022/10/31 09:40:24;;;;;;;;;;;;;;;20.73;65.72;97509.18;601267;236;67394;-75
2022/10/31 09:43:08;;;;;;;;;;;;;;;20.74;65.25;97508.94;601462;234;65505;-73
2022/10/31 09:45:46;;;;;;;;;;;;;;;20.75;65.32;97512.41;603166;234;67050;-73
2022/10/31 09:48:20;;;;;;;;;;;;;;;20.75;65.52;97515.87;603887;234;47032;-74
2022/10/31 09:50:57;;;;;;;;;;;;;;;20.75;65.43;97515.87;600678;234;46648;-73
2022/10/31 09:53:36;;;;;;;;;;;;;;;20.75;65.85;97518.55;599769;236;47997;-74
2022/10/31 09:56:05;;;;;;;;;;;;;;;20.76;66.18;97520.17;600670;236;67151;-71
2022/10/31 09:58:34;;;;;;;;;;;;;;;20.76;65.79;97528.19;600745;236;64860;-71
2022/10/31 10:01:03;;;;;;;;;;;;;;;20.76;65.56;97516.67;600624;236;67369;-70
2022/10/31 10:03:36;;;;;;;;;;;;;;;20.76;65.97;97520.17;600636;236;67009;-76
2022/10/31 10:06:06;;;;;;;;;;;;;;;20.76;64.90;97508.66;600394;236;40387;-73
2022/10/31 10:08:36;;;;;;;;;;;;;;;20.77;65.95;97512.96;599606;236;49005;-72
2022/10/31 10:11:13;;;;;;;;;;;;;;;20.76;65.31;97511.33;599458;236;47124;-72
2022/10/31 10:13:57;;;;;;;;;;;;;;;20.76;64.96;97514.83;599748;236;45240;-72
2022/10/31 10:16:42;;;;;;;;;;;;;;;20.77;65.62;97502.28;600684;236;64818;-73
2022/10/31 10:19:11;;;;;;;;;;;;;;;20.77;65.18;97505.75;600667;236;67053;-73
2022/10/31 10:21:44;;;;;;;;;;;;;;;20.78;65.07;97509.22;599352;236;65111;-72
2022/10/31 10:24:19;;;;;;;;;;;;;;;20.78;65.16;97509.22;600742;234;67606;-70
2022/10/31 10:26:48;;;;;;;;;;;;;;;20.78;65.12;97511.89;600680;236;66909;-72
2022/10/31 10:29:34;;;;;;;;;;;;;;;20.77;65.70;97500.41;600424;236;62777;-72
2022/10/31 10:32:03;;;;;;;;;;;;;;;20.78;65.14;97498.53;600754;236;64835;-73
2022/10/31 10:34:35;;;;;;;;;;;;;;;20.77;64.69;97497.73;600685;236;66855;-71
2022/10/31 10:37:07;;;;;;;;;;;;;;;20.79;65.53;97494.82;600177;236;62761;-72
2022/10/31 10:39:36;;;;;;;;;;;;;;;20.78;66.01;97490.52;600467;236;67078;-72
2022/10/31 10:47:38;;;;;;;;;;;;;;;20.79;65.25;97490.28;600718;236;64930;-70
2022/10/31 10:50:17;;;;;;;;;;;;;;;20.79;65.57;97484.13;602134;234;64582;-72
2022/10/31 10:53:06;;;;;;;;;;;;;;;20.79;65.31;97487.60;604593;234;63001;-71
2022/10/31 10:55:38;;;;;;;;;;;;;;;20.79;66.41;97484.94;604273;234;64844;-71
2022/10/31 10:58:09;;;;;;;;;;;;;;;20.79;66.08;97481.46;601702;234;65141;-71
2022/10/31 11:00:41;;;;;;;;;;;;;;;20.80;65.79;97486.53;601514;234;65068;-71
2022/10/31 11:03:08;;;;;;;;;;;;;;;20.79;64.97;97481.46;601138;236;64852;-73
2022/10/31 11:05:41;;;;;;;;;;;;;;;20.79;65.10;97482.27;601312;236;65014;-74
2022/10/31 11:08:08;;;;;;;;;;;;;;;20.80;65.84;97483.06;601401;236;62663;-74
2022/10/31 11:10:36;;;;;;;;;;;;;;;20.79;65.23;97476.92;601399;236;64826;-75
2022/10/31 11:13:05;;;;;;;;;;;;;;;20.80;65.05;97480.39;601209;234;64498;-74
2022/10/31 11:15:34;;;;;;;;;;;;;;;20.80;65.22;97478.52;603012;234;62854;-74
2022/10/31 11:18:02;;;;;;;;;;;;;;;20.80;65.74;97472.38;602717;234;66901;-74
2022/10/31 11:20:34;;;;;;;;;;;;;;;20.80;65.40;97473.17;602660;234;66726;-74
2022/10/31 11:23:03;;;;;;;;;;;;;;;20.80;65.02;97472.38;603968;234;62771;-74
2022/10/31 11:25:30;;;;;;;;;;;;;;;20.80;65.47;97469.70;602744;234;67069;-75
2022/10/31 11:28:01;;;;;;;;;;;;;;;20.80;65.09;97464.36;601878;234;64380;-74
2022/10/31 11:30:30;;;;;;;;;;;;;;;20.82;65.27;97467.59;600742;234;62774;-75
2022/10/31 11:32:58;;;;;;;;;;;;;;;20.82;65.10;97467.59;602951;234;66921;-74
2022/10/31 11:35:26;;;;;;;;;;;;;;;20.81;65.20;97458.75;602855;234;66703;-74
2022/10/31 11:37:55;;;;;;;;;;;;;;;20.81;65.13;97463.29;602962;234;65127;-74
2022/10/31 11:40:24;;;;;;;;;;;;;;;20.82;65.90;97467.59;604453;234;64870;-75
2022/10/31 11:42:53;;;;;;;;;;;;;;;20.81;66.42;97460.62;604544;234;64830;-75
2022/10/31 11:45:25;;;;;;;;;;;;;;;20.81;65.26;97461.41;604541;234;64938;-74
2022/10/31 11:47:54;;;;;;;;;;;;;;;20.81;65.38;97458.75;604480;234;64837;-75
2022/10/31 11:50:26;;;;;;;;;;;;;;;20.82;65.24;97451.56;604548;234;47070;-74
2022/10/31 11:52:54;;;;;;;;;;;;;;;20.82;65.93;97463.05;603940;234;62773;-75
2022/10/31 11:55:39;;;;;;;;;;;;;;;20.83;66.07;97458.50;604460;234;64824;-74
2022/10/31 11:58:08;;;;;;;;;;;;;;;20.82;66.19;97462.24;604495;234;64819;-73
2022/10/31 12:00:40;;;;;;;;;;;;;;;20.82;65.53;97457.70;603987;234;62606;-72
2022/10/31 12:03:13;;;;;;;;;;;;;;;20.82;65.64;97448.89;604499;234;64680;-73
2022/10/31 12:05:41;;;;;;;;;;;;;;;20.84;64.94;97449.41;604559;234;66775;-71
2022/10/31 12:08:10;;;;;;;;;;;;;;;20.83;65.35;97453.95;604491;234;64939;-75
2022/10/31 12:10:42;;;;;;;;;;;;;;;20.83;65.07;97450.48;604512;234;64851;-73
2022/10/31 12:13:14;;;;;;;;;;;;;;;20.83;65.39;97453.95;603372;234;67072;-73
2022/10/31 12:15:42;;;;;;;;;;;;;;;20.82;65.53;97457.70;603723;234;64917;-74
2022/10/31 12:18:17;;;;;;;;;;;;;;;20.82;65.47;97452.36;604416;234;66966;-73
2022/10/31 12:20:55;;;;;;;;;;;;;;;20.83;66.59;97455.83;604311;234;64927;-75
2022/10/31 12:23:24;;;;;;;;;;;;;;;20.82;66.21;97457.70;604318;234;66266;-74
2022/10/31 12:25:53;;;;;;;;;;;;;;;20.83;66.23;97447.81;604565;234;67055;-75
2022/10/31 12:28:28;;;;;;;;;;;;;;;20.84;66.33;97449.41;604472;234;67162;-74
2022/10/31 12:31:14;;;;;;;;;;;;;;;20.83;66.58;97448.61;604485;234;62848;-74
2022/10/31 12:33:49;;;;;;;;;;;;;;;20.83;65.74;97443.27;604546;234;64566;-73
2022/10/31 12:36:34;;;;;;;;;;;;;;;20.83;65.41;97447.81;604577;234;66975;-74
2022/10/31 12:39:04;;;;;;;;;;;;;;;20.84;65.53;97438.72;604398;234;65099;-74
2022/10/31 12:41:45;;;;;;;;;;;;;;;20.84;66.09;97446.73;604509;234;67468;-74
2022/10/31 12:44:14;;;;;;;;;;;;;;;20.83;65.99;97443.27;604416;234;68371;-72
2022/10/31 12:46:43;;;;;;;;;;;;;;;20.84;65.70;97449.41;603634;234;65135;-75
2022/10/31 12:49:12;;;;;;;;;;;;;;;20.84;66.37;97450.23;602685;234;64824;-74
2022/10/31 12:51:42;;;;;;;;;;;;;;;20.84;66.59;97450.23;604630;234;64824;-73
2022/10/31 12:54:29;;;;;;;;;;;;;;;20.84;66.46;97449.41;602197;234;62832;-73
2022/10/31 12:57:14;;;;;;;;;;;;;;;20.84;65.01;97446.73;604437;234;64937;-74
2022/10/31 12:59:46;;;;;;;;;;;;;;;20.84;64.46;97444.89;604676;234;64687;-73
2022/10/31 13:02:27;;;;;;;;;;;;;;;20.85;64.75;97445.70;604721;234;62775;-73
2022/10/31 13:05:13;;;;;;;;;;;;;;;20.86;64.53;97447.29;604533;234;67161;-71
2022/10/31 13:07:45;;;;;;;;;;;;;;;20.88;65.30;97447.05;604658;234;64789;-72
2022/10/31 13:10:17;;;;;;;;;;;;;;;20.86;66.40;97449.97;604670;234;65667;-73
2022/10/31 13:12:46;;;;;;;;;;;;;;;20.86;65.65;97449.16;604539;234;64981;-73